Time;durP1;ratioP1;P1;durP2;ratioP2;P2;SDS_P1;SDS_P2;PMS_P1;PMS_P2;Temp;Humidity;BMP_temperature;BMP_pressure;BME280_temperature;BME280_humidity;BME280_pressure;Samples;Min_cycle;Max_cycle;Signal;HPM_P1;HPM_P2
2023/01/06 00:00:38;;;;;;;24.33;11.10;;;7.10;1.00;;;;;;4955889;29;20174;-48
2023/01/06 00:03:04;;;;;;;31.13;12.33;;;7.10;1.00;;;;;;4954205;29;20189;-49
2023/01/06 00:05:30;;;;;;;26.03;12.50;;;7.10;1.00;;;;;;4955789;29;20170;-48
2023/01/06 00:07:56;;;;;;;34.47;12.63;;;7.10;1.00;;;;;;4954574;29;20829;-48
2023/01/06 00:10:22;;;;;;;30.93;11.77;;;7.10;1.00;;;;;;4955725;28;20484;-49
2023/01/06 00:12:49;;;;;;;28.27;12.50;;;7.20;1.10;;;;;;4954560;28;21956;-49
2023/01/06 00:15:16;;;;;;;24.27;11.60;;;7.20;1.50;;;;;;4954847;29;20445;-49
2023/01/06 00:17:42;;;;;;;23.43;12.00;;;7.20;1.00;;;;;;4955435;29;20413;-49
2023/01/06 00:20:09;;;;;;;29.50;12.87;;;7.10;1.00;;;;;;4954333;28;20822;-52
2023/01/06 00:22:34;;;;;;;35.00;13.23;;;7.20;1.00;;;;;;4953872;29;20230;-49
2023/01/06 00:25:00;;;;;;;38.07;13.17;;;7.20;1.40;;;;;;4954294;28;20484;-49
2023/01/06 00:27:26;;;;;;;35.93;12.17;;;7.20;2.20;;;;;;4953244;29;20193;-48
2023/01/06 00:29:52;;;;;;;34.77;12.77;;;7.20;1.00;;;;;;4955103;29;20877;-49
2023/01/06 00:32:18;;;;;;;31.30;13.50;;;7.20;1.00;;;;;;4954240;29;20201;-49
2023/01/06 00:34:44;;;;;;;24.83;11.77;;;7.20;1.00;;;;;;4954209;29;20437;-49
2023/01/06 00:37:10;;;;;;;29.93;12.00;;;7.10;1.00;;;;;;4954998;29;20429;-49
2023/01/06 00:39:35;;;;;;;29.87;12.80;;;7.10;1.00;;;;;;4954316;28;20422;-49
2023/01/06 00:42:04;;;;;;;35.33;12.97;;;7.10;1.00;;;;;;4954891;29;20213;-49
2023/01/06 00:44:32;;;;;;;28.27;13.77;;;7.10;1.00;;;;;;4953477;29;20194;-49
2023/01/06 00:46:57;;;;;;;29.80;13.30;;;7.20;3.50;;;;;;4954729;29;20435;-49
2023/01/06 00:49:23;;;;;;;25.07;12.63;;;7.10;1.00;;;;;;4953908;29;20473;-49
2023/01/06 00:51:49;;;;;;;28.40;12.53;;;7.20;4.40;;;;;;4955090;29;20173;-50
2023/01/06 00:54:15;;;;;;;40.80;13.40;;;7.10;2.40;;;;;;4953504;29;20441;-51
2023/01/06 00:56:44;;;;;;;23.97;12.87;;;7.00;1.70;;;;;;4936109;29;20225;-58
2023/01/06 00:59:13;;;;;;;26.77;13.50;;;7.10;6.20;;;;;;4954596;29;20401;-50
2023/01/06 01:01:39;;;;;;;30.87;13.80;;;7.10;11.80;;;;;;4954897;29;20405;-53
2023/01/06 01:04:05;;;;;;;39.77;13.87;;;7.10;15.50;;;;;;4936789;29;20947;-51
2023/01/06 01:06:31;;;;;;;31.80;14.90;;;7.10;16.80;;;;;;4954471;29;20436;-50
2023/01/06 01:08:58;;;;;;;30.73;13.87;;;7.10;17.20;;;;;;4954669;28;20409;-51
2023/01/06 01:14:09;;;;;;;34.40;13.63;;;7.20;18.00;;;;;;4953527;29;20451;-51
2023/01/06 01:16:36;;;;;;;28.93;12.60;;;7.10;16.60;;;;;;4953770;28;20445;-51
2023/01/06 01:19:01;;;;;;;35.17;13.00;;;7.10;16.70;;;;;;4954086;29;20785;-51
2023/01/06 01:21:27;;;;;;;23.83;13.70;;;7.10;19.60;;;;;;4952625;28;20477;-50
2023/01/06 01:23:53;;;;;;;29.40;13.87;;;7.10;25.90;;;;;;4943120;28;20252;-51
2023/01/06 01:26:19;;;;;;;23.40;12.23;;;7.10;28.80;;;;;;4951500;29;20224;-50
2023/01/06 01:28:44;;;;;;;25.73;12.53;;;7.10;34.00;;;;;;4953686;29;20193;-51
2023/01/06 01:31:11;;;;;;;22.70;11.97;;;7.20;40.10;;;;;;4954223;29;20481;-51
2023/01/06 01:33:37;;;;;;;21.43;11.03;;;7.20;40.60;;;;;;4952978;28;20201;-53
2023/01/06 01:36:07;;;;;;;27.13;10.97;;;7.20;38.20;;;;;;4953786;29;20406;-51
2023/01/06 01:38:33;;;;;;;23.10;11.00;;;7.20;35.50;;;;;;4953468;29;20464;-51
2023/01/06 01:40:59;;;;;;;22.70;10.97;;;7.10;33.90;;;;;;4953517;28;20491;-51
2023/01/06 01:43:25;;;;;;;21.50;10.57;;;7.10;38.20;;;;;;4953364;28;20229;-51
2023/01/06 01:45:53;;;;;;;19.73;11.60;;;7.20;46.50;;;;;;4952692;29;20448;-51
2023/01/06 01:48:31;;;;;;;24.43;11.03;;;7.20;44.70;;;;;;4934432;29;20178;-51
2023/01/06 01:51:00;;;;;;;24.47;10.60;;;7.20;48.60;;;;;;4952596;28;20480;-51
2023/01/06 01:53:32;;;;;;;23.30;11.60;;;7.20;50.60;;;;;;4952539;28;20452;-51
2023/01/06 01:56:02;;;;;;;26.57;12.43;;;7.20;54.90;;;;;;4953390;28;20464;-52
2023/01/06 01:58:37;;;;;;;20.17;11.17;;;7.30;62.10;;;;;;4953395;28;20413;-51
2023/01/06 02:01:04;;;;;;;20.10;10.53;;;7.20;59.30;;;;;;4953412;28;20410;-51
2023/01/06 02:03:30;;;;;;;18.60;11.13;;;7.30;58.10;;;;;;4951817;28;20464;-51
2023/01/06 02:06:00;;;;;;;20.93;11.60;;;7.30;56.30;;;;;;4953169;29;21230;-51
2023/01/06 02:08:32;;;;;;;21.40;12.50;;;7.30;51.10;;;;;;4953382;29;20280;-51
2023/01/06 02:10:58;;;;;;;23.17;12.00;;;7.30;50.90;;;;;;4952418;29;20469;-49
2023/01/06 02:13:23;;;;;;;17.97;11.20;;;7.20;49.00;;;;;;4934121;29;20476;-49
2023/01/06 02:15:58;;;;;;;19.50;10.93;;;7.20;50.90;;;;;;4953085;28;20178;-49
2023/01/06 02:18:32;;;;;;;19.40;11.53;;;7.20;58.70;;;;;;4938567;29;20227;-49
2023/01/06 02:21:08;;;;;;;20.87;10.80;;;7.20;69.60;;;;;;4952212;29;20444;-50
2023/01/06 02:23:33;;;;;;;21.57;12.13;;;7.20;84.30;;;;;;4951723;29;21033;-51
2023/01/06 02:26:25;;;;;;;18.47;10.97;;;7.30;94.80;;;;;;4952335;29;20481;-50
2023/01/06 02:29:29;;;;;;;23.43;11.77;;;7.30;99.80;;;;;;4951797;29;20498;-50
2023/01/06 02:32:00;;;;;;;25.47;12.33;;;7.30;99.90;;;;;;4952252;29;20468;-51
2023/01/06 02:34:32;;;;;;;22.27;12.23;;;7.30;99.90;;;;;;4941260;29;20446;-51
2023/01/06 02:37:07;;;;;;;25.23;11.70;;;7.30;99.90;;;;;;4933264;29;20491;-51
2023/01/06 02:39:35;;;;;;;20.07;11.70;;;7.30;99.90;;;;;;4933897;29;21012;-50
2023/01/06 02:42:21;;;;;;;21.50;10.17;;;7.30;99.90;;;;;;4934139;29;20437;-51
2023/01/06 02:44:56;;;;;;;20.90;11.10;;;7.40;99.90;;;;;;4932677;29;20455;-51
2023/01/06 02:47:40;;;;;;;22.80;10.90;;;7.30;99.90;;;;;;4933488;28;20951;-51
2023/01/06 02:50:09;;;;;;;20.47;11.27;;;7.30;99.90;;;;;;4933099;29;20483;-51
2023/01/06 02:52:52;;;;;;;17.03;10.47;;;7.30;99.90;;;;;;4933448;29;20472;-51
2023/01/06 02:55:32;;;;;;;20.40;11.00;;;7.30;99.90;;;;;;4933895;29;22329;-50
2023/01/06 02:58:08;;;;;;;16.70;9.80;;;7.40;99.90;;;;;;4939471;29;20830;-50
2023/01/06 03:00:42;;;;;;;19.60;10.83;;;7.40;99.90;;;;;;4951582;29;20437;-51
2023/01/06 03:03:13;;;;;;;20.93;11.07;;;7.40;99.90;;;;;;4952421;28;20441;-51
2023/01/06 03:05:43;;;;;;;23.83;12.27;;;7.40;99.90;;;;;;4955405;28;20445;-51
2023/01/06 03:08:13;;;;;;;20.03;11.40;;;7.40;99.90;;;;;;4955796;29;20523;-50
2023/01/06 03:10:42;;;;;;;23.77;12.10;;;7.40;99.90;;;;;;4955566;29;20972;-51
2023/01/06 03:13:18;;;;;;;21.53;12.67;;;7.40;99.90;;;;;;4946968;28;20453;-51
2023/01/06 03:15:43;;;;;;;32.30;14.70;;;7.40;99.90;;;;;;4937575;29;20410;-55
2023/01/06 03:18:09;;;;;;;25.20;13.80;;;7.50;99.90;;;;;;4950078;28;20444;-50
2023/01/06 03:20:35;;;;;;;25.13;13.53;;;7.60;99.90;;;;;;4955598;29;20539;-51
2023/01/06 03:23:00;;;;;;;27.80;13.87;;;7.70;99.90;;;;;;4954962;28;20229;-51
2023/01/06 03:25:26;;;;;;;26.97;13.63;;;7.60;99.90;;;;;;4937821;29;20193;-51
2023/01/06 03:27:52;;;;;;;27.00;13.63;;;7.70;99.90;;;;;;4953945;28;20540;-50
2023/01/06 03:30:17;;;;;;;29.00;14.10;;;7.70;99.90;;;;;;4955268;28;20232;-51
2023/01/06 03:32:55;;;;;;;34.00;14.57;;;7.70;99.90;;;;;;4955040;28;20206;-50
2023/01/06 03:35:40;;;;;;;32.40;15.33;;;7.80;99.90;;;;;;4955136;29;20204;-50
2023/01/06 03:38:24;;;;;;;29.60;15.50;;;7.80;99.90;;;;;;4955140;29;20934;-49
2023/01/06 03:41:15;;;;;;;29.47;14.37;;;7.80;99.90;;;;;;4955097;29;21273;-49
2023/01/06 03:44:05;;;;;;;37.10;15.83;;;7.80;99.90;;;;;;4953304;29;20446;-49
2023/01/06 03:46:40;;;;;;;37.00;17.00;;;7.80;99.90;;;;;;4954941;28;20526;-49
2023/01/06 03:49:05;;;;;;;36.20;16.40;;;7.90;99.90;;;;;;4954153;29;20563;-49
2023/01/06 03:51:40;;;;;;;27.87;15.50;;;7.90;99.90;;;;;;4955187;28;20509;-49
2023/01/06 03:54:24;;;;;;;42.27;19.17;;;8.00;99.90;;;;;;4954492;28;20321;-49
2023/01/06 03:57:11;;;;;;;38.13;17.77;;;8.10;99.90;;;;;;4954342;29;20807;-49
2023/01/06 03:59:43;;;;;;;39.60;17.70;;;8.10;99.90;;;;;;4954390;29;20445;-50
2023/01/06 04:02:09;;;;;;;42.63;18.43;;;8.30;99.90;;;;;;4955008;29;20616;-50
2023/01/06 04:04:36;;;;;;;45.70;20.10;;;8.30;99.90;;;;;;4953728;28;20457;-49
2023/01/06 04:07:01;;;;;;;60.90;21.57;;;8.40;99.90;;;;;;4953954;29;20232;-49
2023/01/06 04:09:27;;;;;;;50.80;21.70;;;8.50;99.90;;;;;;4953868;28;20505;-49
2023/01/06 04:14:37;;;;;;;54.53;20.47;;;8.70;99.90;;;;;;4952085;28;20192;-49
2023/01/06 04:17:02;;;;;;;54.10;21.30;;;8.80;99.90;;;;;;4954367;28;20895;-49
2023/01/06 04:19:28;;;;;;;56.43;21.43;;;8.90;99.90;;;;;;4954083;29;20565;-49
2023/01/06 04:21:53;;;;;;;58.67;22.10;;;8.90;99.90;;;;;;4954501;29;20253;-49
2023/01/06 04:24:19;;;;;;;49.87;22.30;;;9.00;99.90;;;;;;4948336;29;20242;-49
2023/01/06 04:26:44;;;;;;;55.10;21.70;;;9.10;99.90;;;;;;4944892;29;20238;-49
2023/01/06 04:29:10;;;;;;;49.20;21.23;;;9.10;99.90;;;;;;4954053;29;20201;-49
2023/01/06 04:31:36;;;;;;;52.20;22.80;;;9.10;99.90;;;;;;4955606;28;20182;-50
2023/01/06 04:34:01;;;;;;;58.37;22.40;;;9.10;99.90;;;;;;4954254;29;20192;-50
2023/01/06 04:36:27;;;;;;;52.93;22.40;;;9.10;99.90;;;;;;4955042;29;20214;-49
2023/01/06 04:38:52;;;;;;;42.10;20.80;;;9.20;99.90;;;;;;4953956;29;20284;-49
2023/01/06 04:41:19;;;;;;;45.43;20.00;;;9.20;99.90;;;;;;4954225;29;20193;-49
2023/01/06 04:43:44;;;;;;;52.40;21.50;;;9.20;99.90;;;;;;4944778;28;20253;-50
2023/01/06 04:46:10;;;;;;;53.93;22.27;;;9.10;99.90;;;;;;4954381;29;20465;-49
2023/01/06 04:48:36;;;;;;;55.23;22.13;;;9.20;99.90;;;;;;4952042;28;20209;-50
2023/01/06 04:51:07;;;;;;;62.17;22.50;;;9.30;99.90;;;;;;4947437;29;20217;-49
2023/01/06 04:53:34;;;;;;;48.77;21.90;;;9.30;99.90;;;;;;4952424;29;20192;-49
2023/01/06 04:56:05;;;;;;;58.30;23.80;;;9.40;99.90;;;;;;4954413;29;20418;-50
2023/01/06 04:58:30;;;;;;;51.37;21.37;;;9.40;99.90;;;;;;4953010;29;20919;-49
2023/01/06 05:01:05;;;;;;;45.37;21.13;;;9.40;99.90;;;;;;4953959;29;20481;-49
2023/01/06 05:03:31;;;;;;;52.20;22.90;;;9.40;99.90;;;;;;4952884;29;20193;-49
2023/01/06 05:06:01;;;;;;;52.17;22.30;;;9.40;99.90;;;;;;4953920;29;20516;-50
2023/01/06 05:08:27;;;;;;;50.40;21.03;;;9.40;99.90;;;;;;4952061;29;20197;-50
2023/01/06 05:11:00;;;;;;;46.50;21.80;;;9.40;99.90;;;;;;4954595;28;20472;-50
2023/01/06 05:13:28;;;;;;;48.37;21.10;;;9.50;99.90;;;;;;4952759;29;20503;-50
2023/01/06 05:15:53;;;;;;;46.80;21.40;;;9.50;99.90;;;;;;4936888;28;20440;-51
2023/01/06 05:18:19;;;;;;;40.20;19.33;;;9.50;99.90;;;;;;4952446;29;20437;-51
2023/01/06 05:20:51;;;;;;;47.97;21.50;;;9.50;99.90;;;;;;4953441;29;20237;-51
2023/01/06 05:23:17;;;;;;;42.77;20.03;;;9.50;99.90;;;;;;4952903;28;20233;-51
2023/01/06 05:25:43;;;;;;;37.63;18.80;;;9.50;99.90;;;;;;4951994;28;21095;-51
2023/01/06 05:28:08;;;;;;;42.63;20.00;;;9.50;99.90;;;;;;4953107;28;20448;-51
2023/01/06 05:30:34;;;;;;;38.67;18.27;;;9.60;99.90;;;;;;4953462;29;20272;-51
2023/01/06 05:33:00;;;;;;;41.53;18.80;;;9.60;99.90;;;;;;4953157;28;20189;-51
2023/01/06 05:35:25;;;;;;;46.60;18.63;;;9.50;99.90;;;;;;4953109;28;20190;-51
2023/01/06 05:37:53;;;;;;;44.73;20.87;;;9.50;99.90;;;;;;4951600;28;20185;-51
2023/01/06 05:40:19;;;;;;;42.80;20.27;;;9.50;99.90;;;;;;4954132;29;20194;-51
2023/01/06 05:42:44;;;;;;;41.70;19.80;;;9.50;99.90;;;;;;4952235;29;20455;-50
2023/01/06 05:45:11;;;;;;;41.23;19.70;;;9.50;99.90;;;;;;4937505;29;20320;-50
2023/01/06 05:47:36;;;;;;;38.73;19.20;;;9.60;99.90;;;;;;4951458;28;20204;-52
2023/01/06 05:50:02;;;;;;;35.47;18.00;;;9.60;99.90;;;;;;4951939;29;20464;-49
2023/01/06 05:52:28;;;;;;;34.23;18.33;;;9.60;99.90;;;;;;4952855;28;20174;-49
2023/01/06 05:54:54;;;;;;;38.70;19.30;;;9.60;99.90;;;;;;4953947;29;21258;-49
2023/01/06 05:57:19;;;;;;;41.80;20.10;;;9.60;99.90;;;;;;4952291;29;20269;-49
2023/01/06 05:59:45;;;;;;;33.53;17.87;;;9.60;99.90;;;;;;4953729;28;20193;-49
2023/01/06 06:02:10;;;;;;;35.07;18.33;;;9.60;99.90;;;;;;4952371;29;20189;-49
2023/01/06 06:04:36;;;;;;;34.10;19.93;;;9.60;99.90;;;;;;4936191;29;20252;-49
2023/01/06 06:07:01;;;;;;;39.53;18.80;;;9.60;99.90;;;;;;4919641;29;20727;-50
2023/01/06 06:09:27;;;;;;;36.27;18.90;;;9.60;99.90;;;;;;4934589;29;20625;-51
2023/01/06 06:11:53;;;;;;;37.50;20.10;;;9.60;99.90;;;;;;4953357;29;20229;-50
2023/01/06 06:14:19;;;;;;;34.13;18.77;;;9.60;99.90;;;;;;4951450;29;20620;-49
2023/01/06 06:16:44;;;;;;;41.63;19.80;;;9.60;99.90;;;;;;4953053;29;20540;-49
2023/01/06 06:19:11;;;;;;;34.17;19.00;;;9.60;99.90;;;;;;4951194;29;20659;-49
2023/01/06 06:21:37;;;;;;;41.80;19.17;;;9.60;99.90;;;;;;4953321;29;20266;-49
2023/01/06 06:24:03;;;;;;;34.77;19.03;;;9.60;99.90;;;;;;4952464;29;20992;-49
2023/01/06 06:26:29;;;;;;;37.93;20.40;;;9.60;99.90;;;;;;4953550;28;20193;-49
2023/01/06 06:28:54;;;;;;;39.33;20.33;;;9.60;99.90;;;;;;4949878;29;20445;-49
2023/01/06 06:31:26;;;;;;;40.07;19.97;;;9.60;99.90;;;;;;4938717;29;20224;-49
2023/01/06 06:33:53;;;;;;;37.43;20.57;;;9.70;99.90;;;;;;4949345;29;20208;-49
2023/01/06 06:36:19;;;;;;;35.73;18.90;;;9.60;99.90;;;;;;4951654;28;20437;-49
2023/01/06 06:38:47;;;;;;;37.47;20.93;;;9.60;99.90;;;;;;4953293;29;20443;-49
2023/01/06 06:41:12;;;;;;;37.83;21.00;;;9.60;99.90;;;;;;4955066;29;20461;-49
2023/01/06 06:43:38;;;;;;;40.17;19.97;;;9.60;99.90;;;;;;4956332;28;21100;-49
2023/01/06 06:46:04;;;;;;;39.33;20.80;;;9.60;99.90;;;;;;4956147;29;20202;-49
2023/01/06 06:48:30;;;;;;;36.47;21.00;;;9.70;99.90;;;;;;4955973;28;20452;-49
2023/01/06 06:51:03;;;;;;;37.73;21.10;;;9.70;99.90;;;;;;4960458;28;20477;-49
2023/01/06 06:53:28;;;;;;;35.50;19.70;;;9.70;99.90;;;;;;4947431;29;20210;-49
2023/01/06 06:55:55;;;;;;;35.27;19.30;;;9.70;99.90;;;;;;4956093;29;20947;-48
2023/01/06 06:58:21;;;;;;;36.60;21.07;;;9.70;94.10;;;;;;4956094;29;20268;-49
2023/01/06 07:00:47;;;;;;;34.47;18.63;;;9.70;85.10;;;;;;4948594;29;20508;-48
2023/01/06 07:03:12;;;;;;;33.17;20.43;;;9.70;86.50;;;;;;4955363;29;20841;-49
2023/01/06 07:05:38;;;;;;;46.00;20.50;;;9.70;83.90;;;;;;4956204;29;20221;-49
2023/01/06 07:08:04;;;;;;;40.23;19.40;;;9.70;79.60;;;;;;4954866;29;20202;-49
2023/01/06 07:10:29;;;;;;;32.03;18.77;;;9.70;75.40;;;;;;4955920;29;20469;-49
2023/01/06 07:12:55;;;;;;;36.37;19.83;;;9.70;64.80;;;;;;4955478;28;20216;-48
2023/01/06 07:15:20;;;;;;;38.80;20.70;;;9.60;58.00;;;;;;4955503;29;20200;-49
2023/01/06 07:17:46;;;;;;;43.60;19.63;;;9.60;61.40;;;;;;4955564;29;20253;-49
2023/01/06 07:20:12;;;;;;;31.23;18.57;;;9.60;60.40;;;;;;4954553;28;20208;-49
2023/01/06 07:22:38;;;;;;;36.10;18.70;;;9.60;62.80;;;;;;4955555;29;20197;-49
2023/01/06 07:25:06;;;;;;;33.97;18.33;;;9.60;63.30;;;;;;4955385;29;20189;-49
2023/01/06 07:27:32;;;;;;;38.30;19.40;;;9.70;66.10;;;;;;4955018;28;20437;-49
2023/01/06 07:29:57;;;;;;;29.90;17.63;;;9.60;55.00;;;;;;4955861;28;20555;-49
2023/01/06 07:32:23;;;;;;;27.27;18.10;;;9.60;45.10;;;;;;4940899;29;20253;-49
2023/01/06 07:34:48;;;;;;;30.33;18.00;;;9.60;49.50;;;;;;4955337;29;20228;-50
2023/01/06 07:37:14;;;;;;;29.90;16.67;;;9.60;46.10;;;;;;4954958;28;20194;-49
2023/01/06 07:39:39;;;;;;;25.80;16.30;;;9.60;36.80;;;;;;4949924;29;20666;-50
2023/01/06 07:42:07;;;;;;;25.03;16.23;;;9.70;35.60;;;;;;4955451;29;20186;-51
2023/01/06 07:44:33;;;;;;;32.17;16.73;;;9.70;29.60;;;;;;4955775;29;20233;-51
2023/01/06 07:46:59;;;;;;;34.30;16.73;;;9.60;26.10;;;;;;4952919;28;20484;-51
2023/01/06 07:49:24;;;;;;;25.23;16.03;;;9.60;26.30;;;;;;4954301;28;20214;-50
2023/01/06 07:51:50;;;;;;;25.00;15.40;;;9.60;27.10;;;;;;4955828;28;20190;-51
2023/01/06 07:54:15;;;;;;;23.00;14.10;;;9.60;22.70;;;;;;4954092;29;20200;-51
2023/01/06 07:56:42;;;;;;;27.37;15.67;;;9.70;21.20;;;;;;4934897;29;21103;-51
2023/01/06 07:59:08;;;;;;;25.27;15.77;;;9.70;11.80;;;;;;4954317;29;20190;-51
2023/01/06 08:01:34;;;;;;;23.70;15.20;;;9.70;1.00;;;;;;4954256;28;20939;-50
2023/01/06 08:04:00;;;;;;;23.13;16.13;;;9.80;1.00;;;;;;4955135;29;20496;-50
2023/01/06 08:06:25;;;;;;;23.93;14.90;;;9.80;1.00;;;;;;4955085;29;20190;-51
2023/01/06 08:08:51;;;;;;;22.40;14.87;;;9.70;1.00;;;;;;4954759;28;20194;-51
2023/01/06 08:11:17;;;;;;;32.87;16.27;;;9.70;1.00;;;;;;4954789;28;20229;-51
2023/01/06 08:13:42;;;;;;;24.50;15.07;;;9.70;1.00;;;;;;4948879;29;20261;-50
2023/01/06 08:16:09;;;;;;;23.60;15.10;;;9.70;1.00;;;;;;4943067;29;20192;-50
2023/01/06 08:18:35;;;;;;;23.47;14.10;;;9.80;1.00;;;;;;4947394;29;20194;-51
2023/01/06 08:21:02;;;;;;;21.90;14.30;;;9.80;1.00;;;;;;4950292;29;20843;-49
2023/01/06 08:23:28;;;;;;;24.10;13.93;;;9.80;1.00;;;;;;4947954;29;20583;-52
2023/01/06 08:26:08;;;;;;;20.03;13.40;;;9.80;1.00;;;;;;4956451;29;20516;-50
2023/01/06 08:28:35;;;;;;;23.80;13.53;;;9.80;1.00;;;;;;4955532;29;20885;-51
2023/01/06 08:31:02;;;;;;;18.27;12.90;;;9.80;1.00;;;;;;4956195;29;21347;-51
2023/01/06 08:33:28;;;;;;;16.83;12.13;;;9.80;1.00;;;;;;4955957;29;20449;-55
2023/01/06 08:36:05;;;;;;;20.00;12.73;;;9.80;1.00;;;;;;4955909;28;20837;-51
2023/01/06 08:38:32;;;;;;;18.90;11.53;;;9.80;1.00;;;;;;4955827;28;20512;-51
2023/01/06 08:40:58;;;;;;;20.23;11.13;;;9.80;1.00;;;;;;4955569;29;20445;-50
2023/01/06 08:43:25;;;;;;;15.50;11.03;;;9.80;1.00;;;;;;4956175;28;20452;-50
2023/01/06 08:45:51;;;;;;;16.30;10.67;;;9.80;1.00;;;;;;4938500;29;20451;-50
2023/01/06 08:48:17;;;;;;;14.00;10.60;;;9.80;1.00;;;;;;4956111;29;20413;-50
2023/01/06 08:50:43;;;;;;;19.20;12.07;;;9.90;1.00;;;;;;4955553;29;20477;-52
2023/01/06 08:53:10;;;;;;;13.77;11.07;;;9.80;1.00;;;;;;4955766;29;20417;-50
2023/01/06 08:55:39;;;;;;;15.00;9.97;;;9.80;1.00;;;;;;4955404;29;20284;-52
2023/01/06 08:58:06;;;;;;;17.73;11.23;;;9.80;1.00;;;;;;4955998;29;20721;-51
2023/01/06 09:00:31;;;;;;;14.77;10.70;;;9.80;1.00;;;;;;4954384;28;20428;-50
2023/01/06 09:02:57;;;;;;;14.73;10.30;;;9.80;1.00;;;;;;4955874;28;20421;-50
2023/01/06 09:05:23;;;;;;;16.50;10.60;;;9.90;1.00;;;;;;4954684;29;20201;-50
2023/01/06 09:07:51;;;;;;;16.07;9.90;;;9.80;1.00;;;;;;4955761;29;20176;-50
2023/01/06 09:10:18;;;;;;;18.30;9.97;;;9.80;1.00;;;;;;4954910;28;20214;-50
2023/01/06 09:12:44;;;;;;;14.33;10.00;;;9.80;1.00;;;;;;4956278;28;20436;-50
2023/01/06 09:15:10;;;;;;;14.30;9.80;;;9.80;1.00;;;;;;4955254;29;20421;-51
2023/01/06 09:17:36;;;;;;;15.03;9.37;;;9.80;1.00;;;;;;4954998;29;20221;-50
2023/01/06 09:20:01;;;;;;;12.57;9.47;;;9.80;1.00;;;;;;4954930;29;20444;-50
2023/01/06 09:22:27;;;;;;;14.80;9.30;;;9.80;1.00;;;;;;4955028;29;21003;-51
2023/01/06 09:24:52;;;;;;;18.10;9.80;;;9.80;1.00;;;;;;4954519;29;20237;-50
2023/01/06 09:27:18;;;;;;;11.20;8.63;;;9.80;1.00;;;;;;4954939;29;20652;-51
2023/01/06 09:29:43;;;;;;;13.80;8.97;;;9.90;1.00;;;;;;4954900;29;20540;-50
2023/01/06 09:32:09;;;;;;;14.67;9.13;;;9.90;1.00;;;;;;4936746;29;20575;-50
2023/01/06 09:34:35;;;;;;;10.67;7.70;;;9.90;1.00;;;;;;4938205;29;20393;-50
2023/01/06 09:37:01;;;;;;;10.40;7.90;;;9.90;1.00;;;;;;4954404;28;20790;-49
2023/01/06 09:39:26;;;;;;;13.27;8.93;;;9.90;1.00;;;;;;4955427;29;20188;-47
2023/01/06 09:42:22;;;;;;;9.77;8.10;;;9.90;1.00;;;;;;4954380;29;20193;-47
2023/01/06 09:44:55;;;;;;;14.77;8.50;;;9.90;1.00;;;;;;4936062;29;20245;-48
2023/01/06 09:47:32;;;;;;;12.73;8.30;;;9.80;1.00;;;;;;4955227;28;20791;-47
2023/01/06 09:50:15;;;;;;;11.63;7.53;;;9.90;1.00;;;;;;4954400;28;20464;-48
2023/01/06 09:52:48;;;;;;;11.73;8.40;;;9.80;1.00;;;;;;4932148;29;20418;-49
2023/01/06 09:55:45;;;;;;;9.17;7.77;;;9.80;1.00;;;;;;4932528;29;21052;-48
2023/01/06 09:58:19;;;;;;;12.10;8.00;;;9.70;1.00;;;;;;4933735;29;20760;-48
2023/01/06 10:00:48;;;;;;;13.17;8.00;;;9.80;1.00;;;;;;4939912;28;20462;-48
2023/01/06 10:03:16;;;;;;;9.63;7.03;;;9.80;1.00;;;;;;4933234;29;20421;-48
2023/01/06 10:05:48;;;;;;;8.80;7.10;;;9.80;1.00;;;;;;4937371;29;21127;-49
2023/01/06 10:08:35;;;;;;;9.33;7.03;;;9.80;1.00;;;;;;4951070;28;20954;-49
2023/01/06 10:11:32;;;;;;;8.40;6.67;;;9.80;1.00;;;;;;4933023;29;20596;-48
2023/01/06 10:14:04;;;;;;;9.50;6.23;;;9.90;1.00;;;;;;4947668;29;20444;-51
2023/01/06 10:17:02;;;;;;;8.97;6.60;;;9.80;1.00;;;;;;4952023;29;20934;-51
2023/01/06 10:19:39;;;;;;;9.40;6.70;;;9.90;1.00;;;;;;4950595;28;21108;-51
2023/01/06 10:22:48;;;;;;;11.50;7.00;;;9.90;1.00;;;;;;4959107;28;20538;-51
2023/01/06 10:25:26;;;;;;;9.20;7.40;;;10.00;1.00;;;;;;4933442;28;20468;-51
2023/01/06 10:28:01;;;;;;;7.17;6.47;;;10.00;1.00;;;;;;4951277;29;20814;-51
2023/01/06 10:30:33;;;;;;;10.73;7.20;;;10.00;1.00;;;;;;4950461;29;20933;-51
2023/01/06 10:33:00;;;;;;;14.90;7.80;;;10.00;1.00;;;;;;4942175;29;20456;-58
2023/01/06 10:35:27;;;;;;;7.50;6.73;;;10.00;1.00;;;;;;4951941;29;20451;-52
2023/01/06 10:37:54;;;;;;;10.17;7.70;;;10.10;1.00;;;;;;4945659;28;20446;-51
2023/01/06 10:40:26;;;;;;;8.73;7.17;;;10.10;1.00;;;;;;4933207;29;20771;-51
2023/01/06 10:43:05;;;;;;;12.60;7.73;;;10.10;1.00;;;;;;4953085;28;20469;-50
2023/01/06 10:45:47;;;;;;;8.77;7.33;;;10.10;1.00;;;;;;4953911;28;20889;-66
2023/01/06 10:48:18;;;;;;;10.93;7.37;;;10.10;1.00;;;;;;4950995;28;20453;-51
2023/01/06 10:50:46;;;;;;;8.43;7.40;;;10.10;1.00;;;;;;4953720;28;20480;-51
2023/01/06 10:53:12;;;;;;;9.93;7.70;;;10.10;1.00;;;;;;4952736;28;20814;-52
2023/01/06 10:55:57;;;;;;;7.77;6.97;;;10.10;1.00;;;;;;4953865;29;20485;-51
2023/01/06 10:58:34;;;;;;;11.80;7.93;;;10.10;1.00;;;;;;4952566;29;20449;-51
2023/01/06 11:01:16;;;;;;;9.13;7.53;;;10.10;1.00;;;;;;4954096;29;20511;-51
2023/01/06 11:03:43;;;;;;;9.43;8.03;;;10.10;1.00;;;;;;4934962;29;20410;-52
2023/01/06 11:06:26;;;;;;;10.43;7.63;;;10.00;1.00;;;;;;4935569;29;20426;-53
2023/01/06 11:08:52;;;;;;;9.33;7.03;;;10.00;1.00;;;;;;4937036;29;20513;-54
2023/01/06 11:11:19;;;;;;;6.10;5.50;;;10.00;1.00;;;;;;4953545;29;20594;-52
2023/01/06 11:13:54;;;;;;;6.50;5.37;;;9.90;1.00;;;;;;4953630;29;20188;-56
2023/01/06 11:16:20;;;;;;;5.83;4.57;;;9.90;1.00;;;;;;4944912;29;20455;-52
2023/01/06 11:18:54;;;;;;;5.60;4.10;;;9.90;1.00;;;;;;4953270;29;20511;-51
2023/01/06 11:21:20;;;;;;;3.90;3.60;;;9.90;1.00;;;;;;4954102;29;20412;-51
2023/01/06 11:23:47;;;;;;;7.10;4.10;;;9.90;1.00;;;;;;4954357;28;20473;-52
2023/01/06 11:26:18;;;;;;;6.57;2.90;;;9.90;1.00;;;;;;4956494;29;20488;-54
2023/01/06 11:28:46;;;;;;;4.13;3.10;;;10.10;1.00;;;;;;4956816;29;20965;-53
2023/01/06 11:31:27;;;;;;;2.40;2.20;;;10.70;1.00;;;;;;4957115;28;20465;-52
2023/01/06 11:33:55;;;;;;;4.03;1.90;;;11.60;1.00;;;;;;4953276;29;20843;-51
2023/01/06 11:36:26;;;;;;;4.83;1.80;;;11.80;1.00;;;;;;4956441;29;20413;-52
2023/01/06 11:38:59;;;;;;;1.53;1.23;;;11.40;1.00;;;;;;4956901;29;20417;-51
2023/01/06 11:41:32;;;;;;;1.50;1.40;;;11.10;1.00;;;;;;4957215;28;20449;-57
2023/01/06 11:44:22;;;;;;;6.37;2.03;;;11.00;1.00;;;;;;4956315;28;20801;-52
2023/01/06 11:46:51;;;;;;;5.53;1.43;;;11.10;1.00;;;;;;4937840;29;20449;-51
2023/01/06 11:49:23;;;;;;;1.17;1.07;;;11.30;92.20;;;;;;4939141;29;20439;-51
2023/01/06 11:51:50;;;;;;;2.50;1.00;;;11.50;1.00;;;;;;4956565;29;20441;-51
2023/01/06 11:54:38;;;;;;;1.13;1.03;;;11.80;99.90;;;;;;4956117;29;20417;-51
2023/01/06 11:57:36;;;;;;;8.13;1.60;;;12.30;1.00;;;;;;4956760;28;20500;-55
2023/01/06 12:00:18;;;;;;;3.63;1.30;;;12.50;1.00;;;;;;4956109;28;20431;-51
2023/01/06 12:03:06;;;;;;;5.77;1.40;;;12.60;99.90;;;;;;4956586;29;20412;-52
2023/01/06 12:05:52;;;;;;;3.67;1.23;;;13.10;1.00;;;;;;4955883;28;20433;-51
2023/01/06 12:08:25;;;;;;;5.80;1.77;;;13.60;1.00;;;;;;4899574;29;20537;-51
2023/01/06 12:10:58;;;;;;;3.80;1.17;;;13.60;99.90;;;;;;4956444;29;20519;-50
2023/01/06 12:13:24;;;;;;;2.13;0.93;;;13.70;1.00;;;;;;4955714;29;20440;-51
2023/01/06 12:16:02;;;;;;;9.07;1.47;;;13.80;99.90;;;;;;4948643;29;20445;-51
2023/01/06 12:18:32;;;;;;;2.73;1.00;;;13.90;76.50;;;;;;4954629;29;20445;-51
2023/01/06 12:21:01;;;;;;;2.80;1.40;;;14.00;38.10;;;;;;4956591;29;20417;-51
2023/01/06 12:23:37;;;;;;;4.40;1.20;;;14.30;15.70;;;;;;4954763;29;20851;-52
2023/01/06 12:26:15;;;;;;;8.83;1.50;;;14.50;1.00;;;;;;4955803;29;20408;-52
2023/01/06 12:28:44;;;;;;;3.37;1.20;;;14.50;1.00;;;;;;4946234;29;20487;-51
2023/01/06 12:31:16;;;;;;;5.37;1.33;;;13.70;1.00;;;;;;4954769;28;20484;-51
2023/01/06 12:33:59;;;;;;;6.57;2.10;;;14.10;1.00;;;;;;4954836;29;20791;-51
2023/01/06 12:36:55;;;;;;;6.30;1.13;;;14.20;1.00;;;;;;4953799;28;21013;-51
2023/01/06 12:39:44;;;;;;;4.73;1.80;;;14.50;1.00;;;;;;4906603;29;20953;-51
2023/01/06 12:42:38;;;;;;;8.10;1.77;;;13.90;1.00;;;;;;4940218;29;20958;-51
2023/01/06 12:45:15;;;;;;;6.00;1.50;;;13.40;1.00;;;;;;4952796;29;20445;-51
2023/01/06 12:47:47;;;;;;;2.70;1.17;;;13.10;1.00;;;;;;4952995;28;20437;-51
2023/01/06 12:50:20;;;;;;;7.00;1.43;;;13.20;1.00;;;;;;4955087;28;20560;-52
2023/01/06 12:53:08;;;;;;;3.07;1.23;;;12.90;1.00;;;;;;4953409;28;20460;-52
2023/01/06 12:56:11;;;;;;;4.27;1.10;;;12.10;1.00;;;;;;4951344;29;20448;-51
2023/01/06 12:58:54;;;;;;;1.97;1.27;;;11.50;94.40;;;;;;4955166;28;20406;-51
2023/01/06 13:01:47;;;;;;;10.33;1.50;;;12.00;99.90;;;;;;4953303;29;20472;-51
2023/01/06 13:04:12;;;;;;;7.43;1.20;;;12.20;99.90;;;;;;4931516;28;20473;-56
2023/01/06 13:07:05;;;;;;;6.13;1.70;;;12.10;72.40;;;;;;4954959;28;20520;-51